<?xml version="1.0" encoding="UTF-8" standalone="no" ?>
<gpx xmlns="http://www.topografix.com/GPX/1/1" xmlns:xsi="http://www.w3.org/2001/XMLSchema-instance" xsi:schemaLocation="http://www.topografix.com/GPX/1/1 http://www.topografix.com/GPX/1/1/gpx.xsd" version="1.1" creator="VisuGPX - https://www.visugpx.com">
  <metadata>
    <name>randonnée gorge du verdon</name>
  </metadata>
  <wpt lat="45.59193" lon="0.70117">
    <ele>277.8</ele>
  </wpt>
  <wpt lat="45.65739" lon="0.55618">
    <ele>143.3</ele>
  </wpt>
  <wpt lat="45.63709" lon="0.85693">
    <ele>372.8</ele>
  </wpt>
  <wpt lat="45.73184" lon="0.86843">
    <ele>357.9</ele>
  </wpt>
  <wpt lat="45.79874" lon="1.03757">
    <ele>396.8</ele>
  </wpt>
  <wpt lat="45.7679" lon="0.77824">
    <ele>289.8</ele>
    <type><![CDATA[hotel]]></type>
  </wpt>
  <wpt lat="43.84808" lon="6.51102">
    <ele>732.8</ele>
  </wpt>
  <wpt lat="43.77962" lon="6.33969">
    <ele>936.7</ele>
  </wpt>
  <trk>
    <name><![CDATA[24oct 2020]]></name>
    <extensions>
      <line xmlns="http://www.topografix.com/GPX/gpx_style/0/2">
        <color>ff0000</color>
        <width>4</width>
      </line>
    </extensions>
    <trkseg>
      <trkpt lat="43.84268" lon="6.21859">
        <ele>571.6</ele>
      </trkpt>
      <trkpt lat="43.84215" lon="6.21844">
        <ele>568.5</ele>
      </trkpt>
      <trkpt lat="43.84162" lon="6.21822">
        <ele>560.7</ele>
      </trkpt>
      <trkpt lat="43.84067" lon="6.21797">
        <ele>557.3</ele>
      </trkpt>
      <trkpt lat="43.84014" lon="6.2179">
        <ele>556.3</ele>
      </trkpt>
      <trkpt lat="43.83965" lon="6.21766">
        <ele>555.7</ele>
      </trkpt>
      <trkpt lat="43.8389" lon="6.21738">
        <ele>552.3</ele>
      </trkpt>
      <trkpt lat="43.8382" lon="6.21723">
        <ele>548.1</ele>
      </trkpt>
      <trkpt lat="43.83819" lon="6.21709">
        <ele>547.3</ele>
      </trkpt>
      <trkpt lat="43.83744" lon="6.21706">
        <ele>543.5</ele>
      </trkpt>
      <trkpt lat="43.83711" lon="6.21708">
        <ele>543.3</ele>
      </trkpt>
      <trkpt lat="43.83691" lon="6.21701">
        <ele>543</ele>
      </trkpt>
      <trkpt lat="43.83676" lon="6.21679">
        <ele>542.1</ele>
      </trkpt>
      <trkpt lat="43.83659" lon="6.21684">
        <ele>540.6</ele>
      </trkpt>
      <trkpt lat="43.83648" lon="6.21694">
        <ele>540.4</ele>
      </trkpt>
      <trkpt lat="43.8362" lon="6.21755">
        <ele>542.2</ele>
      </trkpt>
      <trkpt lat="43.83603" lon="6.21772">
        <ele>541.8</ele>
      </trkpt>
      <trkpt lat="43.83571" lon="6.2179">
        <ele>539.7</ele>
      </trkpt>
      <trkpt lat="43.83539" lon="6.21794">
        <ele>539.2</ele>
      </trkpt>
      <trkpt lat="43.83506" lon="6.21807">
        <ele>538.7</ele>
      </trkpt>
      <trkpt lat="43.83462" lon="6.21839">
        <ele>530.845</ele>
        <time>2019-05-15T21:42:31Z</time>
      </trkpt>
      <trkpt lat="43.83438" lon="6.21861">
        <ele>530.037</ele>
        <time>2019-05-15T21:42:51Z</time>
      </trkpt>
      <trkpt lat="43.83411" lon="6.21871">
        <ele>530.029</ele>
        <time>2019-05-15T21:43:11Z</time>
      </trkpt>
      <trkpt lat="43.83406" lon="6.21872">
        <ele>530.062</ele>
        <time>2019-05-15T21:43:31Z</time>
      </trkpt>
      <trkpt lat="43.83306" lon="6.21946">
        <ele>529.028</ele>
        <time>2019-05-15T21:43:51Z</time>
      </trkpt>
      <trkpt lat="43.83274" lon="6.21949">
        <ele>528.03</ele>
        <time>2019-05-15T21:44:11Z</time>
      </trkpt>
      <trkpt lat="43.83248" lon="6.21973">
        <ele>526.972</ele>
        <time>2019-05-15T21:44:31Z</time>
      </trkpt>
      <trkpt lat="43.8317" lon="6.22015">
        <ele>524.588</ele>
        <time>2019-05-15T21:44:51Z</time>
      </trkpt>
      <trkpt lat="43.83104" lon="6.22032">
        <ele>521.817</ele>
        <time>2019-05-15T21:45:11Z</time>
      </trkpt>
      <trkpt lat="43.83112" lon="6.22081">
        <ele>520.187</ele>
        <time>2019-05-15T21:45:31Z</time>
      </trkpt>
      <trkpt lat="43.83139" lon="6.22089">
        <ele>521.015</ele>
        <time>2019-05-15T21:45:51Z</time>
      </trkpt>
      <trkpt lat="43.83193" lon="6.22095">
        <ele>523.408</ele>
        <time>2019-05-15T21:46:11Z</time>
      </trkpt>
      <trkpt lat="43.83222" lon="6.22103">
        <ele>524.745</ele>
        <time>2019-05-15T21:46:31Z</time>
      </trkpt>
      <trkpt lat="43.83286" lon="6.22216">
        <ele>531.797</ele>
        <time>2019-05-15T21:46:51Z</time>
      </trkpt>
      <trkpt lat="43.83149" lon="6.2244">
        <ele>530.299</ele>
        <time>2019-05-15T21:47:11Z</time>
      </trkpt>
      <trkpt lat="43.8311" lon="6.22482">
        <ele>527.342</ele>
        <time>2019-05-15T21:47:31Z</time>
      </trkpt>
      <trkpt lat="43.83047" lon="6.22501">
        <ele>525.128</ele>
        <time>2019-05-15T21:47:51Z</time>
      </trkpt>
      <trkpt lat="43.82815" lon="6.22463">
        <ele>523.54</ele>
        <time>2019-05-15T21:48:11Z</time>
      </trkpt>
      <trkpt lat="43.82809" lon="6.22501">
        <ele>526.712</ele>
        <time>2019-05-15T21:48:31Z</time>
      </trkpt>
      <trkpt lat="43.82822" lon="6.22537">
        <ele>526.988</ele>
        <time>2019-05-15T21:48:51Z</time>
      </trkpt>
      <trkpt lat="43.82823" lon="6.22561">
        <ele>528.964</ele>
        <time>2019-05-15T21:49:11Z</time>
      </trkpt>
      <trkpt lat="43.82831" lon="6.22586">
        <ele>531.906</ele>
        <time>2019-05-15T21:49:31Z</time>
      </trkpt>
      <trkpt lat="43.8283" lon="6.22605">
        <ele>536.116</ele>
        <time>2019-05-15T21:49:51Z</time>
      </trkpt>
      <trkpt lat="43.82836" lon="6.22636">
        <ele>542.308</ele>
        <time>2019-05-15T21:50:11Z</time>
      </trkpt>
      <trkpt lat="43.82827" lon="6.22654">
        <ele>547.59</ele>
        <time>2019-05-15T21:50:31Z</time>
      </trkpt>
      <trkpt lat="43.82826" lon="6.2269">
        <ele>551.992</ele>
        <time>2019-05-15T21:50:51Z</time>
      </trkpt>
      <trkpt lat="43.82832" lon="6.22705">
        <ele>553.244</ele>
        <time>2019-05-15T21:51:11Z</time>
      </trkpt>
      <trkpt lat="43.82827" lon="6.22749">
        <ele>557.177</ele>
        <time>2019-05-15T21:51:31Z</time>
      </trkpt>
      <trkpt lat="43.82821" lon="6.22829">
        <ele>565.573</ele>
        <time>2019-05-15T21:51:51Z</time>
      </trkpt>
      <trkpt lat="43.82814" lon="6.22849">
        <ele>568.545</ele>
        <time>2019-05-15T21:52:11Z</time>
      </trkpt>
      <trkpt lat="43.82809" lon="6.22898">
        <ele>576.887</ele>
        <time>2019-05-15T21:52:31Z</time>
      </trkpt>
      <trkpt lat="43.82798" lon="6.22917">
        <ele>580.043</ele>
        <time>2019-05-15T21:52:51Z</time>
      </trkpt>
      <trkpt lat="43.82797" lon="6.22932">
        <ele>582.426</ele>
        <time>2019-05-15T21:53:11Z</time>
      </trkpt>
      <trkpt lat="43.82785" lon="6.22966">
        <ele>589.047</ele>
        <time>2019-05-15T21:53:31Z</time>
      </trkpt>
      <trkpt lat="43.82759" lon="6.23021">
        <ele>599.611</ele>
        <time>2019-05-15T21:53:51Z</time>
      </trkpt>
      <trkpt lat="43.82759" lon="6.23042">
        <ele>603.108</ele>
        <time>2019-05-15T21:54:11Z</time>
      </trkpt>
      <trkpt lat="43.82754" lon="6.23059">
        <ele>606.696</ele>
        <time>2019-05-15T21:54:31Z</time>
      </trkpt>
      <trkpt lat="43.8276" lon="6.23094">
        <ele>613.588</ele>
        <time>2019-05-15T21:54:51Z</time>
      </trkpt>
      <trkpt lat="43.82761" lon="6.23146">
        <ele>624.82</ele>
        <time>2019-05-15T21:55:11Z</time>
      </trkpt>
      <trkpt lat="43.82756" lon="6.23165">
        <ele>628.553</ele>
        <time>2019-05-15T21:55:31Z</time>
      </trkpt>
      <trkpt lat="43.82758" lon="6.23183">
        <ele>632.899</ele>
        <time>2019-05-15T21:55:51Z</time>
      </trkpt>
      <trkpt lat="43.82734" lon="6.23234">
        <ele>646.221</ele>
        <time>2019-05-15T21:56:11Z</time>
      </trkpt>
      <trkpt lat="43.82713" lon="6.23297">
        <ele>665.313</ele>
        <time>2019-05-15T21:56:31Z</time>
      </trkpt>
      <trkpt lat="43.82716" lon="6.23315">
        <ele>669.269</ele>
        <time>2019-05-15T21:56:51Z</time>
      </trkpt>
      <trkpt lat="43.82702" lon="6.23359">
        <ele>682.639</ele>
        <time>2019-05-15T21:57:11Z</time>
      </trkpt>
      <trkpt lat="43.82693" lon="6.23366">
        <ele>685.301</ele>
        <time>2019-05-15T21:57:31Z</time>
      </trkpt>
      <trkpt lat="43.82686" lon="6.2339">
        <ele>691.721</ele>
        <time>2019-05-15T21:57:51Z</time>
      </trkpt>
      <trkpt lat="43.82687" lon="6.23411">
        <ele>697.708</ele>
        <time>2019-05-15T21:58:11Z</time>
      </trkpt>
      <trkpt lat="43.82678" lon="6.23431">
        <ele>705.287</ele>
        <time>2019-05-15T21:58:31Z</time>
      </trkpt>
      <trkpt lat="43.82693" lon="6.23473">
        <ele>717.739</ele>
        <time>2019-05-15T21:58:51Z</time>
      </trkpt>
      <trkpt lat="43.8268" lon="6.23479">
        <ele>722.871</ele>
        <time>2019-05-15T21:59:11Z</time>
      </trkpt>
      <trkpt lat="43.82677" lon="6.23492">
        <ele>729.574</ele>
        <time>2019-05-15T21:59:31Z</time>
      </trkpt>
      <trkpt lat="43.82657" lon="6.23498">
        <ele>735.51</ele>
        <time>2019-05-15T21:59:51Z</time>
      </trkpt>
      <trkpt lat="43.82657" lon="6.2351">
        <ele>741.852</ele>
        <time>2019-05-15T22:00:11Z</time>
      </trkpt>
      <trkpt lat="43.82642" lon="6.23515">
        <ele>744.714</ele>
        <time>2019-05-15T22:00:31Z</time>
      </trkpt>
      <trkpt lat="43.82636" lon="6.2354">
        <ele>756.45</ele>
        <time>2019-05-15T22:00:51Z</time>
      </trkpt>
      <trkpt lat="43.8262" lon="6.23548">
        <ele>760.648</ele>
        <time>2019-05-15T22:01:11Z</time>
      </trkpt>
      <trkpt lat="43.82606" lon="6.23543">
        <ele>759.861</ele>
        <time>2019-05-15T22:01:31Z</time>
      </trkpt>
      <trkpt lat="43.8259" lon="6.23548">
        <ele>765.717</ele>
        <time>2019-05-15T22:01:51Z</time>
      </trkpt>
      <trkpt lat="43.82587" lon="6.23563">
        <ele>773.408</ele>
        <time>2019-05-15T22:02:11Z</time>
      </trkpt>
      <trkpt lat="43.82572" lon="6.23579">
        <ele>779.548</ele>
        <time>2019-05-15T22:02:31Z</time>
      </trkpt>
      <trkpt lat="43.82554" lon="6.23608">
        <ele>790.25</ele>
        <time>2019-05-15T22:02:51Z</time>
      </trkpt>
      <trkpt lat="43.82546" lon="6.23632">
        <ele>796.452</ele>
        <time>2019-05-15T22:03:11Z</time>
      </trkpt>
      <trkpt lat="43.82544" lon="6.23662">
        <ele>806.665</ele>
        <time>2019-05-15T22:03:31Z</time>
      </trkpt>
      <trkpt lat="43.82532" lon="6.23692">
        <ele>810.021</ele>
        <time>2019-05-15T22:03:51Z</time>
      </trkpt>
      <trkpt lat="43.82525" lon="6.23731">
        <ele>815.673</ele>
        <time>2019-05-15T22:04:11Z</time>
      </trkpt>
      <trkpt lat="43.825" lon="6.23784">
        <ele>826.365</ele>
        <time>2019-05-15T22:04:31Z</time>
      </trkpt>
      <trkpt lat="43.82466" lon="6.23813">
        <ele>823.271</ele>
        <time>2019-05-15T22:04:51Z</time>
      </trkpt>
      <trkpt lat="43.82442" lon="6.2382">
        <ele>818.653</ele>
        <time>2019-05-15T22:05:11Z</time>
      </trkpt>
      <trkpt lat="43.82433" lon="6.23804">
        <ele>812.704</ele>
        <time>2019-05-15T22:05:31Z</time>
      </trkpt>
      <trkpt lat="43.82408" lon="6.238">
        <ele>815.714</ele>
        <time>2019-05-15T22:05:51Z</time>
      </trkpt>
      <trkpt lat="43.82396" lon="6.23842">
        <ele>840.308</ele>
        <time>2019-05-15T22:06:11Z</time>
      </trkpt>
      <trkpt lat="43.82421" lon="6.23851">
        <ele>847.669</ele>
        <time>2019-05-15T22:06:31Z</time>
      </trkpt>
      <trkpt lat="43.82398" lon="6.23873">
        <ele>853.941</ele>
        <time>2019-05-15T22:06:51Z</time>
      </trkpt>
      <trkpt lat="43.8239" lon="6.23895">
        <ele>859.573</ele>
        <time>2019-05-15T22:07:11Z</time>
      </trkpt>
      <trkpt lat="43.82377" lon="6.23915">
        <ele>855.126</ele>
        <time>2019-05-15T22:07:31Z</time>
      </trkpt>
      <trkpt lat="43.8236" lon="6.23907">
        <ele>843.572</ele>
        <time>2019-05-15T22:07:51Z</time>
      </trkpt>
      <trkpt lat="43.82331" lon="6.23905">
        <ele>849.324</ele>
        <time>2019-05-15T22:08:11Z</time>
      </trkpt>
      <trkpt lat="43.82332" lon="6.23922">
        <ele>855.186</ele>
        <time>2019-05-15T22:08:31Z</time>
      </trkpt>
      <trkpt lat="43.82314" lon="6.23903">
        <ele>860.982</ele>
        <time>2019-05-15T22:08:51Z</time>
      </trkpt>
      <trkpt lat="43.82313" lon="6.23909">
        <ele>862.621</ele>
        <time>2019-05-15T22:09:11Z</time>
      </trkpt>
      <trkpt lat="43.82291" lon="6.23924">
        <ele>873.241</ele>
        <time>2019-05-15T22:09:31Z</time>
      </trkpt>
      <trkpt lat="43.82292" lon="6.23941">
        <ele>878.105</ele>
        <time>2019-05-15T22:09:51Z</time>
      </trkpt>
      <trkpt lat="43.82275" lon="6.23985">
        <ele>894.408</ele>
        <time>2019-05-15T22:10:11Z</time>
      </trkpt>
      <trkpt lat="43.82286" lon="6.24024">
        <ele>913.566</ele>
        <time>2019-05-15T22:10:31Z</time>
      </trkpt>
      <trkpt lat="43.82318" lon="6.2402">
        <ele>922.888</ele>
        <time>2019-05-15T22:10:51Z</time>
      </trkpt>
      <trkpt lat="43.82339" lon="6.24029">
        <ele>922.76</ele>
        <time>2019-05-15T22:11:11Z</time>
      </trkpt>
      <trkpt lat="43.82335" lon="6.24044">
        <ele>929.243</ele>
        <time>2019-05-15T22:11:31Z</time>
      </trkpt>
      <trkpt lat="43.82308" lon="6.24071">
        <ele>943.369</ele>
        <time>2019-05-15T22:11:51Z</time>
      </trkpt>
      <trkpt lat="43.82298" lon="6.24099">
        <ele>946.631</ele>
        <time>2019-05-15T22:12:11Z</time>
      </trkpt>
      <trkpt lat="43.82291" lon="6.24144">
        <ele>949.133</ele>
        <time>2019-05-15T22:12:31Z</time>
      </trkpt>
      <trkpt lat="43.82279" lon="6.24173">
        <ele>951.149</ele>
        <time>2019-05-15T22:12:51Z</time>
      </trkpt>
      <trkpt lat="43.82275" lon="6.24223">
        <ele>953.425</ele>
        <time>2019-05-15T22:13:11Z</time>
      </trkpt>
      <trkpt lat="43.82259" lon="6.24279">
        <ele>958.126</ele>
        <time>2019-05-15T22:13:31Z</time>
      </trkpt>
      <trkpt lat="43.82254" lon="6.24326">
        <ele>958.008</ele>
        <time>2019-05-15T22:13:51Z</time>
      </trkpt>
      <trkpt lat="43.82263" lon="6.24386">
        <ele>957.008</ele>
        <time>2019-05-15T22:14:11Z</time>
      </trkpt>
      <trkpt lat="43.82254" lon="6.24453">
        <ele>960.636</ele>
        <time>2019-05-15T22:14:31Z</time>
      </trkpt>
      <trkpt lat="43.82238" lon="6.24486">
        <ele>963.398</ele>
        <time>2019-05-15T22:14:51Z</time>
      </trkpt>
      <trkpt lat="43.82238" lon="6.2453">
        <ele>963.39</ele>
        <time>2019-05-15T22:15:11Z</time>
      </trkpt>
      <trkpt lat="43.82229" lon="6.24547">
        <ele>964.443</ele>
        <time>2019-05-15T22:15:31Z</time>
      </trkpt>
      <trkpt lat="43.82227" lon="6.24568">
        <ele>964.629</ele>
        <time>2019-05-15T22:15:51Z</time>
      </trkpt>
      <trkpt lat="43.82217" lon="6.24588">
        <ele>965.451</ele>
        <time>2019-05-15T22:16:11Z</time>
      </trkpt>
      <trkpt lat="43.82214" lon="6.24672">
        <ele>971.893</ele>
        <time>2019-05-15T22:16:31Z</time>
      </trkpt>
      <trkpt lat="43.82205" lon="6.24696">
        <ele>975.029</ele>
        <time>2019-05-15T22:16:51Z</time>
      </trkpt>
      <trkpt lat="43.82201" lon="6.24744">
        <ele>979.791</ele>
        <time>2019-05-15T22:17:11Z</time>
      </trkpt>
      <trkpt lat="43.82211" lon="6.24785">
        <ele>981.881</ele>
        <time>2019-05-15T22:17:31Z</time>
      </trkpt>
      <trkpt lat="43.82207" lon="6.24815">
        <ele>985.019</ele>
        <time>2019-05-15T22:17:51Z</time>
      </trkpt>
      <trkpt lat="43.82207" lon="6.24871">
        <ele>990.608</ele>
        <time>2019-05-15T22:18:11Z</time>
      </trkpt>
      <trkpt lat="43.82212" lon="6.24908">
        <ele>993.613</ele>
        <time>2019-05-15T22:18:31Z</time>
      </trkpt>
      <trkpt lat="43.82225" lon="6.24932">
        <ele>995.275</ele>
        <time>2019-05-15T22:18:51Z</time>
      </trkpt>
      <trkpt lat="43.82227" lon="6.24966">
        <ele>999.097</ele>
        <time>2019-05-15T22:19:11Z</time>
      </trkpt>
      <trkpt lat="43.82216" lon="6.2499">
        <ele>1001.48</ele>
        <time>2019-05-15T22:19:31Z</time>
      </trkpt>
      <trkpt lat="43.82198" lon="6.2511">
        <ele>1008.776</ele>
        <time>2019-05-15T22:19:51Z</time>
      </trkpt>
      <trkpt lat="43.82176" lon="6.25149">
        <ele>1012.388</ele>
        <time>2019-05-15T22:20:11Z</time>
      </trkpt>
      <trkpt lat="43.82132" lon="6.25166">
        <ele>1013.84</ele>
        <time>2019-05-15T22:20:31Z</time>
      </trkpt>
      <trkpt lat="43.82119" lon="6.25184">
        <ele>1011.926</ele>
        <time>2019-05-15T22:20:51Z</time>
      </trkpt>
      <trkpt lat="43.82108" lon="6.25222">
        <ele>1019.381</ele>
        <time>2019-05-15T22:21:11Z</time>
      </trkpt>
      <trkpt lat="43.82089" lon="6.2524">
        <ele>1019.961</ele>
        <time>2019-05-15T22:21:31Z</time>
      </trkpt>
      <trkpt lat="43.82086" lon="6.25257">
        <ele>1023.117</ele>
        <time>2019-05-15T22:21:51Z</time>
      </trkpt>
      <trkpt lat="43.82076" lon="6.25273">
        <ele>1025.108</ele>
        <time>2019-05-15T22:22:11Z</time>
      </trkpt>
      <trkpt lat="43.82073" lon="6.25318">
        <ele>1031.582</ele>
        <time>2019-05-15T22:22:31Z</time>
      </trkpt>
      <trkpt lat="43.82057" lon="6.25365">
        <ele>1038.254</ele>
        <time>2019-05-15T22:22:51Z</time>
      </trkpt>
      <trkpt lat="43.82052" lon="6.25394">
        <ele>1041.826</ele>
        <time>2019-05-15T22:23:11Z</time>
      </trkpt>
      <trkpt lat="43.82035" lon="6.25412">
        <ele>1046.389</ele>
        <time>2019-05-15T22:23:31Z</time>
      </trkpt>
      <trkpt lat="43.82026" lon="6.25445">
        <ele>1052.265</ele>
        <time>2019-05-15T22:23:51Z</time>
      </trkpt>
      <trkpt lat="43.8199" lon="6.25509">
        <ele>1068.927</ele>
        <time>2019-05-15T22:24:11Z</time>
      </trkpt>
      <trkpt lat="43.81973" lon="6.25523">
        <ele>1074.049</ele>
        <time>2019-05-15T22:24:31Z</time>
      </trkpt>
      <trkpt lat="43.81958" lon="6.25548">
        <ele>1078.465</ele>
        <time>2019-05-15T22:24:51Z</time>
      </trkpt>
      <trkpt lat="43.81958" lon="6.25582">
        <ele>1088.041</ele>
        <time>2019-05-15T22:25:11Z</time>
      </trkpt>
      <trkpt lat="43.8197" lon="6.25616">
        <ele>1093.781</ele>
        <time>2019-05-15T22:25:31Z</time>
      </trkpt>
      <trkpt lat="43.81924" lon="6.25739">
        <ele>1136.609</ele>
        <time>2019-05-15T22:25:51Z</time>
      </trkpt>
      <trkpt lat="43.81925" lon="6.25773">
        <ele>1143.708</ele>
        <time>2019-05-15T22:26:11Z</time>
      </trkpt>
      <trkpt lat="43.81913" lon="6.25815">
        <ele>1154.578</ele>
        <time>2019-05-15T22:26:31Z</time>
      </trkpt>
      <trkpt lat="43.81864" lon="6.25874">
        <ele>1173.23</ele>
        <time>2019-05-15T22:26:51Z</time>
      </trkpt>
      <trkpt lat="43.81814" lon="6.25894">
        <ele>1188.212</ele>
        <time>2019-05-15T22:27:11Z</time>
      </trkpt>
      <trkpt lat="43.81801" lon="6.25911">
        <ele>1191.495</ele>
        <time>2019-05-15T22:27:31Z</time>
      </trkpt>
      <trkpt lat="43.81798" lon="6.25936">
        <ele>1194.241</ele>
        <time>2019-05-15T22:27:51Z</time>
      </trkpt>
      <trkpt lat="43.81804" lon="6.2596">
        <ele>1196.843</ele>
        <time>2019-05-15T22:28:11Z</time>
      </trkpt>
      <trkpt lat="43.81802" lon="6.25998">
        <ele>1201.035</ele>
        <time>2019-05-15T22:28:31Z</time>
      </trkpt>
      <trkpt lat="43.81809" lon="6.26026">
        <ele>1203.751</ele>
        <time>2019-05-15T22:28:51Z</time>
      </trkpt>
      <trkpt lat="43.81801" lon="6.26039">
        <ele>1206.312</ele>
        <time>2019-05-15T22:29:11Z</time>
      </trkpt>
      <trkpt lat="43.81795" lon="6.26094">
        <ele>1207.432</ele>
        <time>2019-05-15T22:29:31Z</time>
      </trkpt>
      <trkpt lat="43.81735" lon="6.26153">
        <ele>1200.005</ele>
        <time>2019-05-15T22:29:51Z</time>
      </trkpt>
      <trkpt lat="43.8169" lon="6.26176">
        <ele>1199.108</ele>
        <time>2019-05-15T22:30:11Z</time>
      </trkpt>
      <trkpt lat="43.81671" lon="6.26194">
        <ele>1199.935</ele>
        <time>2019-05-15T22:30:31Z</time>
      </trkpt>
      <trkpt lat="43.81658" lon="6.26184">
        <ele>1199.027</ele>
        <time>2019-05-15T22:30:51Z</time>
      </trkpt>
      <trkpt lat="43.81626" lon="6.26192">
        <ele>1199.389</ele>
        <time>2019-05-15T22:31:11Z</time>
      </trkpt>
      <trkpt lat="43.81623" lon="6.26203">
        <ele>1199.182</ele>
        <time>2019-05-15T22:31:31Z</time>
      </trkpt>
      <trkpt lat="43.81604" lon="6.26209">
        <ele>1195.528</ele>
        <time>2019-05-15T22:31:51Z</time>
      </trkpt>
      <trkpt lat="43.81597" lon="6.26225">
        <ele>1193.12</ele>
        <time>2019-05-15T22:32:11Z</time>
      </trkpt>
      <trkpt lat="43.81602" lon="6.26244">
        <ele>1189.332</ele>
        <time>2019-05-15T22:32:31Z</time>
      </trkpt>
      <trkpt lat="43.81589" lon="6.26262">
        <ele>1180.728</ele>
        <time>2019-05-15T22:32:51Z</time>
      </trkpt>
      <trkpt lat="43.81578" lon="6.26265">
        <ele>1177.627</ele>
        <time>2019-05-15T22:33:11Z</time>
      </trkpt>
      <trkpt lat="43.81554" lon="6.2628">
        <ele>1168.168</ele>
        <time>2019-05-15T22:33:31Z</time>
      </trkpt>
      <trkpt lat="43.81553" lon="6.263">
        <ele>1161.114</ele>
        <time>2019-05-15T22:33:51Z</time>
      </trkpt>
      <trkpt lat="43.81544" lon="6.26316">
        <ele>1153.308</ele>
        <time>2019-05-15T22:34:11Z</time>
      </trkpt>
      <trkpt lat="43.81509" lon="6.26314">
        <ele>1153.816</ele>
        <time>2019-05-15T22:34:31Z</time>
      </trkpt>
      <trkpt lat="43.81474" lon="6.26334">
        <ele>1142.568</ele>
        <time>2019-05-15T22:34:51Z</time>
      </trkpt>
      <trkpt lat="43.81465" lon="6.26347">
        <ele>1134.48</ele>
        <time>2019-05-15T22:35:11Z</time>
      </trkpt>
      <trkpt lat="43.81454" lon="6.26349">
        <ele>1132.223</ele>
        <time>2019-05-15T22:35:31Z</time>
      </trkpt>
      <trkpt lat="43.81454" lon="6.26363">
        <ele>1128.489</ele>
        <time>2019-05-15T22:35:51Z</time>
      </trkpt>
      <trkpt lat="43.81399" lon="6.26379">
        <ele>1109.471</ele>
        <time>2019-05-15T22:36:11Z</time>
      </trkpt>
      <trkpt lat="43.81363" lon="6.26414">
        <ele>1102.493</ele>
        <time>2019-05-15T22:36:31Z</time>
      </trkpt>
      <trkpt lat="43.81333" lon="6.26425">
        <ele>1094.579</ele>
        <time>2019-05-15T22:36:51Z</time>
      </trkpt>
      <trkpt lat="43.81312" lon="6.26449">
        <ele>1091.342</ele>
        <time>2019-05-15T22:37:11Z</time>
      </trkpt>
      <trkpt lat="43.81296" lon="6.26449">
        <ele>1090.722</ele>
        <time>2019-05-15T22:37:31Z</time>
      </trkpt>
      <trkpt lat="43.81219" lon="6.26477">
        <ele>1099.114</ele>
        <time>2019-05-15T22:37:51Z</time>
      </trkpt>
      <trkpt lat="43.81137" lon="6.2648">
        <ele>1107.408</ele>
        <time>2019-05-15T22:38:11Z</time>
      </trkpt>
      <trkpt lat="43.81093" lon="6.26489">
        <ele>1115.788</ele>
        <time>2019-05-15T22:38:31Z</time>
      </trkpt>
      <trkpt lat="43.81059" lon="6.26485">
        <ele>1121.69</ele>
        <time>2019-05-15T22:38:51Z</time>
      </trkpt>
      <trkpt lat="43.81021" lon="6.26488">
        <ele>1132.842</ele>
        <time>2019-05-15T22:39:11Z</time>
      </trkpt>
      <trkpt lat="43.81012" lon="6.26478">
        <ele>1133.595</ele>
        <time>2019-05-15T22:39:31Z</time>
      </trkpt>
      <trkpt lat="43.80939" lon="6.26493">
        <ele>1148.921</ele>
        <time>2019-05-15T22:39:51Z</time>
      </trkpt>
      <trkpt lat="43.80896" lon="6.26477">
        <ele>1155.213</ele>
        <time>2019-05-15T22:40:11Z</time>
      </trkpt>
      <trkpt lat="43.80884" lon="6.26465">
        <ele>1157.235</ele>
        <time>2019-05-15T22:40:31Z</time>
      </trkpt>
      <trkpt lat="43.80874" lon="6.26471">
        <ele>1162.441</ele>
        <time>2019-05-15T22:40:51Z</time>
      </trkpt>
      <trkpt lat="43.80843" lon="6.26455">
        <ele>1166.861</ele>
        <time>2019-05-15T22:41:11Z</time>
      </trkpt>
      <trkpt lat="43.80823" lon="6.26458">
        <ele>1170.821</ele>
        <time>2019-05-15T22:41:31Z</time>
      </trkpt>
      <trkpt lat="43.80802" lon="6.26475">
        <ele>1177.213</ele>
        <time>2019-05-15T22:41:51Z</time>
      </trkpt>
      <trkpt lat="43.8078" lon="6.26473">
        <ele>1181.408</ele>
        <time>2019-05-15T22:42:11Z</time>
      </trkpt>
      <trkpt lat="43.80766" lon="6.26455">
        <ele>1181.74</ele>
        <time>2019-05-15T22:42:31Z</time>
      </trkpt>
      <trkpt lat="43.8074" lon="6.26459">
        <ele>1186.682</ele>
        <time>2019-05-15T22:42:51Z</time>
      </trkpt>
      <trkpt lat="43.80725" lon="6.26475">
        <ele>1187.274</ele>
        <time>2019-05-15T22:43:11Z</time>
      </trkpt>
      <trkpt lat="43.80683" lon="6.2649">
        <ele>1183.767</ele>
        <time>2019-05-15T22:43:31Z</time>
      </trkpt>
      <trkpt lat="43.80667" lon="6.26505">
        <ele>1181.553</ele>
        <time>2019-05-15T22:43:51Z</time>
      </trkpt>
      <trkpt lat="43.80645" lon="6.26507">
        <ele>1180.345</ele>
        <time>2019-05-15T22:44:11Z</time>
      </trkpt>
      <trkpt lat="43.80634" lon="6.26517">
        <ele>1180.627</ele>
        <time>2019-05-15T22:44:31Z</time>
      </trkpt>
      <trkpt lat="43.80597" lon="6.2654">
        <ele>1180.373</ele>
        <time>2019-05-15T22:44:51Z</time>
      </trkpt>
      <trkpt lat="43.80572" lon="6.26547">
        <ele>1178.426</ele>
        <time>2019-05-15T22:45:11Z</time>
      </trkpt>
      <trkpt lat="43.80531" lon="6.26567">
        <ele>1167.847</ele>
        <time>2019-05-15T22:45:31Z</time>
      </trkpt>
      <trkpt lat="43.80512" lon="6.26599">
        <ele>1163.011</ele>
        <time>2019-05-15T22:45:51Z</time>
      </trkpt>
      <trkpt lat="43.80492" lon="6.26619">
        <ele>1163.808</ele>
        <time>2019-05-15T22:46:11Z</time>
      </trkpt>
      <trkpt lat="43.80432" lon="6.26724">
        <ele>1176.966</ele>
        <time>2019-05-15T22:46:31Z</time>
      </trkpt>
      <trkpt lat="43.80367" lon="6.26803">
        <ele>1187.858</ele>
        <time>2019-05-15T22:46:51Z</time>
      </trkpt>
      <trkpt lat="43.803" lon="6.26849">
        <ele>1198.11</ele>
        <time>2019-05-15T22:47:11Z</time>
      </trkpt>
      <trkpt lat="43.80263" lon="6.2691">
        <ele>1197.853</ele>
        <time>2019-05-15T22:47:31Z</time>
      </trkpt>
      <trkpt lat="43.80234" lon="6.26936">
        <ele>1197.929</ele>
        <time>2019-05-15T22:47:51Z</time>
      </trkpt>
      <trkpt lat="43.80133" lon="6.26965">
        <ele>1207.081</ele>
        <time>2019-05-15T22:48:11Z</time>
      </trkpt>
      <trkpt lat="43.80067" lon="6.27014">
        <ele>1203.373</ele>
        <time>2019-05-15T22:48:31Z</time>
      </trkpt>
      <trkpt lat="43.80031" lon="6.27059">
        <ele>1202.679</ele>
        <time>2019-05-15T22:48:51Z</time>
      </trkpt>
      <trkpt lat="43.79987" lon="6.27097">
        <ele>1206.285</ele>
        <time>2019-05-15T22:49:11Z</time>
      </trkpt>
      <trkpt lat="43.79953" lon="6.27148">
        <ele>1204.989</ele>
        <time>2019-05-15T22:49:31Z</time>
      </trkpt>
      <trkpt lat="43.79912" lon="6.27198">
        <ele>1206.817</ele>
        <time>2019-05-15T22:49:51Z</time>
      </trkpt>
      <trkpt lat="43.79895" lon="6.27234">
        <ele>1206.108</ele>
        <time>2019-05-15T22:50:11Z</time>
      </trkpt>
      <trkpt lat="43.79865" lon="6.27289">
        <ele>1206.542</ele>
        <time>2019-05-15T22:50:31Z</time>
      </trkpt>
      <trkpt lat="43.79834" lon="6.27318">
        <ele>1209.014</ele>
        <time>2019-05-15T22:50:51Z</time>
      </trkpt>
      <trkpt lat="43.7981" lon="6.27345">
        <ele>1209.746</ele>
        <time>2019-05-15T22:51:11Z</time>
      </trkpt>
      <trkpt lat="43.79738" lon="6.2747">
        <ele>1212.019</ele>
        <time>2019-05-15T22:51:31Z</time>
      </trkpt>
      <trkpt lat="43.79707" lon="6.27495">
        <ele>1212.725</ele>
        <time>2019-05-15T22:51:51Z</time>
      </trkpt>
      <trkpt lat="43.7968" lon="6.2751">
        <ele>1212.927</ele>
        <time>2019-05-15T22:52:11Z</time>
      </trkpt>
      <trkpt lat="43.79628" lon="6.27525">
        <ele>1210.799</ele>
        <time>2019-05-15T22:52:31Z</time>
      </trkpt>
      <trkpt lat="43.79597" lon="6.27592">
        <ele>1208.755</ele>
        <time>2019-05-15T22:52:51Z</time>
      </trkpt>
      <trkpt lat="43.79575" lon="6.27626">
        <ele>1207.235</ele>
        <time>2019-05-15T22:53:11Z</time>
      </trkpt>
      <trkpt lat="43.7955" lon="6.27676">
        <ele>1204.486</ele>
        <time>2019-05-15T22:53:31Z</time>
      </trkpt>
      <trkpt lat="43.79519" lon="6.2772">
        <ele>1200.214</ele>
        <time>2019-05-15T22:53:51Z</time>
      </trkpt>
      <trkpt lat="43.79496" lon="6.27825">
        <ele>1200.008</ele>
        <time>2019-05-15T22:54:11Z</time>
      </trkpt>
      <trkpt lat="43.79467" lon="6.27874">
        <ele>1200.017</ele>
        <time>2019-05-15T22:54:31Z</time>
      </trkpt>
      <trkpt lat="43.79463" lon="6.27965">
        <ele>1200.019</ele>
        <time>2019-05-15T22:54:51Z</time>
      </trkpt>
      <trkpt lat="43.79449" lon="6.28063">
        <ele>1200.051</ele>
        <time>2019-05-15T22:55:11Z</time>
      </trkpt>
      <trkpt lat="43.79409" lon="6.28183">
        <ele>1202.364</ele>
        <time>2019-05-15T22:55:31Z</time>
      </trkpt>
      <trkpt lat="43.79391" lon="6.28254">
        <ele>1201.87</ele>
        <time>2019-05-15T22:55:51Z</time>
      </trkpt>
      <trkpt lat="43.79387" lon="6.28341">
        <ele>1200.382</ele>
        <time>2019-05-15T22:56:11Z</time>
      </trkpt>
      <trkpt lat="43.79377" lon="6.28419">
        <ele>1203.094</ele>
        <time>2019-05-15T22:56:31Z</time>
      </trkpt>
      <trkpt lat="43.79326" lon="6.28481">
        <ele>1209.18</ele>
        <time>2019-05-15T22:56:51Z</time>
      </trkpt>
      <trkpt lat="43.79218" lon="6.28658">
        <ele>1212.553</ele>
        <time>2019-05-15T22:57:11Z</time>
      </trkpt>
      <trkpt lat="43.79191" lon="6.28728">
        <ele>1213.904</ele>
        <time>2019-05-15T22:57:31Z</time>
      </trkpt>
      <trkpt lat="43.79169" lon="6.28736">
        <ele>1212.614</ele>
        <time>2019-05-15T22:57:51Z</time>
      </trkpt>
      <trkpt lat="43.79137" lon="6.28718">
        <ele>1212.108</ele>
        <time>2019-05-15T22:58:11Z</time>
      </trkpt>
      <trkpt lat="43.79099" lon="6.28735">
        <ele>1217.089</ele>
        <time>2019-05-15T22:58:31Z</time>
      </trkpt>
      <trkpt lat="43.79006" lon="6.28819">
        <ele>1227.291</ele>
        <time>2019-05-15T22:58:51Z</time>
      </trkpt>
      <trkpt lat="43.78996" lon="6.28899">
        <ele>1228.363</ele>
        <time>2019-05-15T22:59:11Z</time>
      </trkpt>
      <trkpt lat="43.78949" lon="6.28932">
        <ele>1217.016</ele>
        <time>2019-05-15T22:59:31Z</time>
      </trkpt>
      <trkpt lat="43.78946" lon="6.28961">
        <ele>1216.222</ele>
        <time>2019-05-15T22:59:51Z</time>
      </trkpt>
      <trkpt lat="43.78933" lon="6.28986">
        <ele>1214.234</ele>
        <time>2019-05-15T23:00:11Z</time>
      </trkpt>
      <trkpt lat="43.7892" lon="6.29036">
        <ele>1210.196</ele>
        <time>2019-05-15T23:00:31Z</time>
      </trkpt>
      <trkpt lat="43.78894" lon="6.2906">
        <ele>1207.752</ele>
        <time>2019-05-15T23:00:51Z</time>
      </trkpt>
      <trkpt lat="43.78872" lon="6.29117">
        <ele>1206.114</ele>
        <time>2019-05-15T23:01:11Z</time>
      </trkpt>
      <trkpt lat="43.78846" lon="6.29129">
        <ele>1202.754</ele>
        <time>2019-05-15T23:01:31Z</time>
      </trkpt>
      <trkpt lat="43.78829" lon="6.29148">
        <ele>1200.009</ele>
        <time>2019-05-15T23:01:51Z</time>
      </trkpt>
      <trkpt lat="43.78796" lon="6.29158">
        <ele>1196.208</ele>
        <time>2019-05-15T23:02:11Z</time>
      </trkpt>
      <trkpt lat="43.78774" lon="6.29144">
        <ele>1195.325</ele>
        <time>2019-05-15T23:02:31Z</time>
      </trkpt>
      <trkpt lat="43.78746" lon="6.29215">
        <ele>1203.857</ele>
        <time>2019-05-15T23:02:51Z</time>
      </trkpt>
      <trkpt lat="43.78688" lon="6.29237">
        <ele>1210.339</ele>
        <time>2019-05-15T23:03:11Z</time>
      </trkpt>
      <trkpt lat="43.78649" lon="6.29231">
        <ele>1214.442</ele>
        <time>2019-05-15T23:03:31Z</time>
      </trkpt>
      <trkpt lat="43.78608" lon="6.29233">
        <ele>1218.958</ele>
        <time>2019-05-15T23:03:51Z</time>
      </trkpt>
      <trkpt lat="43.78577" lon="6.29233">
        <ele>1219.56</ele>
        <time>2019-05-15T23:04:11Z</time>
      </trkpt>
      <trkpt lat="43.78523" lon="6.29271">
        <ele>1220.022</ele>
        <time>2019-05-15T23:04:31Z</time>
      </trkpt>
      <trkpt lat="43.78504" lon="6.29303">
        <ele>1220.088</ele>
        <time>2019-05-15T23:04:51Z</time>
      </trkpt>
      <trkpt lat="43.78498" lon="6.29336">
        <ele>1219.889</ele>
        <time>2019-05-15T23:05:11Z</time>
      </trkpt>
      <trkpt lat="43.78478" lon="6.29393">
        <ele>1217.706</ele>
        <time>2019-05-15T23:05:31Z</time>
      </trkpt>
      <trkpt lat="43.78404" lon="6.2948">
        <ele>1210.626</ele>
        <time>2019-05-15T23:05:51Z</time>
      </trkpt>
      <trkpt lat="43.78413" lon="6.29523">
        <ele>1208.608</ele>
        <time>2019-05-15T23:06:11Z</time>
      </trkpt>
      <trkpt lat="43.7841" lon="6.29539">
        <ele>1207.532</ele>
        <time>2019-05-15T23:06:31Z</time>
      </trkpt>
      <trkpt lat="43.78378" lon="6.29581">
        <ele>1202.394</ele>
        <time>2019-05-15T23:06:51Z</time>
      </trkpt>
      <trkpt lat="43.78367" lon="6.29613">
        <ele>1201.096</ele>
        <time>2019-05-15T23:07:11Z</time>
      </trkpt>
      <trkpt lat="43.7834" lon="6.29646">
        <ele>1195.249</ele>
        <time>2019-05-15T23:07:31Z</time>
      </trkpt>
      <trkpt lat="43.78331" lon="6.29674">
        <ele>1195.235</ele>
        <time>2019-05-15T23:07:51Z</time>
      </trkpt>
      <trkpt lat="43.78359" lon="6.29736">
        <ele>1199.387</ele>
        <time>2019-05-15T23:08:11Z</time>
      </trkpt>
      <trkpt lat="43.78391" lon="6.29822">
        <ele>1203.529</ele>
        <time>2019-05-15T23:08:31Z</time>
      </trkpt>
      <trkpt lat="43.78437" lon="6.29898">
        <ele>1205.155</ele>
        <time>2019-05-15T23:08:51Z</time>
      </trkpt>
      <trkpt lat="43.78481" lon="6.29945">
        <ele>1205.713</ele>
        <time>2019-05-15T23:09:11Z</time>
      </trkpt>
      <trkpt lat="43.78521" lon="6.2997">
        <ele>1206.043</ele>
        <time>2019-05-15T23:09:31Z</time>
      </trkpt>
      <trkpt lat="43.78558" lon="6.30006">
        <ele>1208.207</ele>
        <time>2019-05-15T23:09:51Z</time>
      </trkpt>
      <trkpt lat="43.78601" lon="6.30069">
        <ele>1211.108</ele>
        <time>2019-05-15T23:10:11Z</time>
      </trkpt>
      <trkpt lat="43.78601" lon="6.30091">
        <ele>1213.065</ele>
        <time>2019-05-15T23:10:31Z</time>
      </trkpt>
      <trkpt lat="43.78615" lon="6.30129">
        <ele>1215.377</ele>
        <time>2019-05-15T23:10:51Z</time>
      </trkpt>
      <trkpt lat="43.78609" lon="6.30187">
        <ele>1219.639</ele>
        <time>2019-05-15T23:11:11Z</time>
      </trkpt>
      <trkpt lat="43.78576" lon="6.30217">
        <ele>1225.492</ele>
        <time>2019-05-15T23:11:31Z</time>
      </trkpt>
      <trkpt lat="43.78549" lon="6.30222">
        <ele>1228.588</ele>
        <time>2019-05-15T23:11:51Z</time>
      </trkpt>
      <trkpt lat="43.78495" lon="6.30259">
        <ele>1235.63</ele>
        <time>2019-05-15T23:12:11Z</time>
      </trkpt>
      <trkpt lat="43.78464" lon="6.30254">
        <ele>1239.242</ele>
        <time>2019-05-15T23:12:31Z</time>
      </trkpt>
      <trkpt lat="43.78452" lon="6.30226">
        <ele>1241.038</ele>
        <time>2019-05-15T23:12:51Z</time>
      </trkpt>
      <trkpt lat="43.78397" lon="6.30194">
        <ele>1248.916</ele>
        <time>2019-05-15T23:13:11Z</time>
      </trkpt>
      <trkpt lat="43.78367" lon="6.3017">
        <ele>1253.476</ele>
        <time>2019-05-15T23:13:31Z</time>
      </trkpt>
      <trkpt lat="43.78347" lon="6.30164">
        <ele>1256.413</ele>
        <time>2019-05-15T23:13:51Z</time>
      </trkpt>
      <trkpt lat="43.78322" lon="6.30191">
        <ele>1262.308</ele>
        <time>2019-05-15T23:14:11Z</time>
      </trkpt>
      <trkpt lat="43.78278" lon="6.30212">
        <ele>1269.565</ele>
        <time>2019-05-15T23:14:31Z</time>
      </trkpt>
      <trkpt lat="43.78254" lon="6.30288">
        <ele>1282.917</ele>
        <time>2019-05-15T23:14:51Z</time>
      </trkpt>
      <trkpt lat="43.78252" lon="6.30314">
        <ele>1286.149</ele>
        <time>2019-05-15T23:15:11Z</time>
      </trkpt>
      <trkpt lat="43.7824" lon="6.3034">
        <ele>1289.932</ele>
        <time>2019-05-15T23:15:31Z</time>
      </trkpt>
      <trkpt lat="43.78213" lon="6.30369">
        <ele>1295.298</ele>
        <time>2019-05-15T23:15:51Z</time>
      </trkpt>
      <trkpt lat="43.78196" lon="6.30411">
        <ele>1302.11</ele>
        <time>2019-05-15T23:16:11Z</time>
      </trkpt>
      <trkpt lat="43.78147" lon="6.30422">
        <ele>1309.322</ele>
        <time>2019-05-15T23:16:31Z</time>
      </trkpt>
      <trkpt lat="43.78113" lon="6.30442">
        <ele>1316.448</ele>
        <time>2019-05-15T23:16:51Z</time>
      </trkpt>
      <trkpt lat="43.78091" lon="6.30443">
        <ele>1318.377</ele>
        <time>2019-05-15T23:17:11Z</time>
      </trkpt>
      <trkpt lat="43.78054" lon="6.30458">
        <ele>1324.661</ele>
        <time>2019-05-15T23:17:31Z</time>
      </trkpt>
      <trkpt lat="43.77957" lon="6.30548">
        <ele>1346.927</ele>
        <time>2019-05-15T23:17:51Z</time>
      </trkpt>
      <trkpt lat="43.77922" lon="6.30566">
        <ele>1351.008</ele>
        <time>2019-05-15T23:18:11Z</time>
      </trkpt>
      <trkpt lat="43.77921" lon="6.30576">
        <ele>1352.121</ele>
        <time>2019-05-15T23:18:31Z</time>
      </trkpt>
      <trkpt lat="43.77935" lon="6.3058">
        <ele>1352.043</ele>
        <time>2019-05-15T23:18:51Z</time>
      </trkpt>
      <trkpt lat="43.77898" lon="6.30663">
        <ele>1360.295</ele>
        <time>2019-05-15T23:19:11Z</time>
      </trkpt>
      <trkpt lat="43.7786" lon="6.30704">
        <ele>1364.688</ele>
        <time>2019-05-15T23:19:31Z</time>
      </trkpt>
      <trkpt lat="43.77849" lon="6.30721">
        <ele>1366.524</ele>
        <time>2019-05-15T23:19:51Z</time>
      </trkpt>
      <trkpt lat="43.77835" lon="6.3073">
        <ele>1366.586</ele>
        <time>2019-05-15T23:20:11Z</time>
      </trkpt>
      <trkpt lat="43.77824" lon="6.3075">
        <ele>1369.198</ele>
        <time>2019-05-15T23:20:31Z</time>
      </trkpt>
      <trkpt lat="43.77795" lon="6.30772">
        <ele>1369.014</ele>
        <time>2019-05-15T23:20:51Z</time>
      </trkpt>
      <trkpt lat="43.77769" lon="6.30801">
        <ele>1369.536</ele>
        <time>2019-05-15T23:21:11Z</time>
      </trkpt>
      <trkpt lat="43.77736" lon="6.30866">
        <ele>1374.117</ele>
        <time>2019-05-15T23:21:31Z</time>
      </trkpt>
      <trkpt lat="43.77736" lon="6.30896">
        <ele>1373.318</ele>
        <time>2019-05-15T23:21:51Z</time>
      </trkpt>
      <trkpt lat="43.7775" lon="6.30932">
        <ele>1370.008</ele>
        <time>2019-05-15T23:22:11Z</time>
      </trkpt>
      <trkpt lat="43.77739" lon="6.30957">
        <ele>1360.527</ele>
        <time>2019-05-15T23:22:31Z</time>
      </trkpt>
      <trkpt lat="43.77692" lon="6.31008">
        <ele>1340.379</ele>
        <time>2019-05-15T23:22:51Z</time>
      </trkpt>
      <trkpt lat="43.77673" lon="6.31013">
        <ele>1332.491</ele>
        <time>2019-05-15T23:23:11Z</time>
      </trkpt>
      <trkpt lat="43.77663" lon="6.31033">
        <ele>1330.384</ele>
        <time>2019-05-15T23:23:31Z</time>
      </trkpt>
      <trkpt lat="43.77616" lon="6.31103">
        <ele>1320.93</ele>
        <time>2019-05-15T23:23:51Z</time>
      </trkpt>
      <trkpt lat="43.77569" lon="6.3129">
        <ele>1315.382</ele>
        <time>2019-05-15T23:24:11Z</time>
      </trkpt>
      <trkpt lat="43.77565" lon="6.31337">
        <ele>1315.914</ele>
        <time>2019-05-15T23:24:31Z</time>
      </trkpt>
      <trkpt lat="43.77536" lon="6.31437">
        <ele>1299.44</ele>
        <time>2019-05-15T23:24:51Z</time>
      </trkpt>
      <trkpt lat="43.77529" lon="6.31492">
        <ele>1293.316</ele>
        <time>2019-05-15T23:25:11Z</time>
      </trkpt>
      <trkpt lat="43.77541" lon="6.31577">
        <ele>1288.676</ele>
        <time>2019-05-15T23:25:31Z</time>
      </trkpt>
      <trkpt lat="43.77563" lon="6.31635">
        <ele>1288.613</ele>
        <time>2019-05-15T23:25:51Z</time>
      </trkpt>
      <trkpt lat="43.77582" lon="6.31655">
        <ele>1291.308</ele>
        <time>2019-05-15T23:26:11Z</time>
      </trkpt>
      <trkpt lat="43.77599" lon="6.31683">
        <ele>1285.995</ele>
        <time>2019-05-15T23:26:31Z</time>
      </trkpt>
      <trkpt lat="43.77617" lon="6.31698">
        <ele>1284.197</ele>
        <time>2019-05-15T23:26:51Z</time>
      </trkpt>
      <trkpt lat="43.77627" lon="6.31719">
        <ele>1279.769</ele>
        <time>2019-05-15T23:27:11Z</time>
      </trkpt>
      <trkpt lat="43.77625" lon="6.31743">
        <ele>1271.752</ele>
        <time>2019-05-15T23:27:31Z</time>
      </trkpt>
      <trkpt lat="43.77617" lon="6.31762">
        <ele>1264.458</ele>
        <time>2019-05-15T23:27:51Z</time>
      </trkpt>
      <trkpt lat="43.77615" lon="6.31789">
        <ele>1258.35</ele>
        <time>2019-05-15T23:28:11Z</time>
      </trkpt>
      <trkpt lat="43.7764" lon="6.3188">
        <ele>1251.182</ele>
        <time>2019-05-15T23:28:31Z</time>
      </trkpt>
      <trkpt lat="43.77679" lon="6.31924">
        <ele>1257.868</ele>
        <time>2019-05-15T23:28:51Z</time>
      </trkpt>
      <trkpt lat="43.77685" lon="6.31951">
        <ele>1252.175</ele>
        <time>2019-05-15T23:29:11Z</time>
      </trkpt>
      <trkpt lat="43.77756" lon="6.32155">
        <ele>1226.628</ele>
        <time>2019-05-15T23:29:31Z</time>
      </trkpt>
      <trkpt lat="43.77805" lon="6.32249">
        <ele>1221.12</ele>
        <time>2019-05-15T23:29:51Z</time>
      </trkpt>
      <trkpt lat="43.77814" lon="6.32308">
        <ele>1214.108</ele>
        <time>2019-05-15T23:30:11Z</time>
      </trkpt>
      <trkpt lat="43.77833" lon="6.32365">
        <ele>1208.681</ele>
        <time>2019-05-15T23:30:31Z</time>
      </trkpt>
      <trkpt lat="43.77881" lon="6.32438">
        <ele>1200.163</ele>
        <time>2019-05-15T23:30:51Z</time>
      </trkpt>
      <trkpt lat="43.77936" lon="6.32512">
        <ele>1190.855</ele>
        <time>2019-05-15T23:31:11Z</time>
      </trkpt>
      <trkpt lat="43.77944" lon="6.32533">
        <ele>1188.488</ele>
        <time>2019-05-15T23:31:31Z</time>
      </trkpt>
      <trkpt lat="43.77965" lon="6.32554">
        <ele>1184.074</ele>
        <time>2019-05-15T23:31:51Z</time>
      </trkpt>
      <trkpt lat="43.77967" lon="6.32569">
        <ele>1181.866</ele>
        <time>2019-05-15T23:32:11Z</time>
      </trkpt>
      <trkpt lat="43.77987" lon="6.32595">
        <ele>1177.118</ele>
        <time>2019-05-15T23:32:31Z</time>
      </trkpt>
      <trkpt lat="43.78018" lon="6.32614">
        <ele>1170.434</ele>
        <time>2019-05-15T23:32:51Z</time>
      </trkpt>
      <trkpt lat="43.7804" lon="6.32602">
        <ele>1170.666</ele>
        <time>2019-05-15T23:33:11Z</time>
      </trkpt>
      <trkpt lat="43.78066" lon="6.32615">
        <ele>1165.929</ele>
        <time>2019-05-15T23:33:31Z</time>
      </trkpt>
      <trkpt lat="43.78083" lon="6.32644">
        <ele>1162.721</ele>
        <time>2019-05-15T23:33:51Z</time>
      </trkpt>
      <trkpt lat="43.78128" lon="6.32675">
        <ele>1161.808</ele>
        <time>2019-05-15T23:34:11Z</time>
      </trkpt>
      <trkpt lat="43.78097" lon="6.32688">
        <ele>1151.94</ele>
        <time>2019-05-15T23:34:31Z</time>
      </trkpt>
      <trkpt lat="43.78151" lon="6.3275">
        <ele>1137.152</ele>
        <time>2019-05-15T23:34:51Z</time>
      </trkpt>
      <trkpt lat="43.78178" lon="6.32798">
        <ele>1128.754</ele>
        <time>2019-05-15T23:35:11Z</time>
      </trkpt>
      <trkpt lat="43.78184" lon="6.32819">
        <ele>1124.277</ele>
        <time>2019-05-15T23:35:31Z</time>
      </trkpt>
      <trkpt lat="43.78135" lon="6.32798">
        <ele>1116.873</ele>
        <time>2019-05-15T23:35:51Z</time>
      </trkpt>
      <trkpt lat="43.78146" lon="6.32826">
        <ele>1111.235</ele>
        <time>2019-05-15T23:36:11Z</time>
      </trkpt>
      <trkpt lat="43.78109" lon="6.32826">
        <ele>1104.047</ele>
        <time>2019-05-15T23:36:31Z</time>
      </trkpt>
      <trkpt lat="43.78125" lon="6.32847">
        <ele>1101.363</ele>
        <time>2019-05-15T23:36:51Z</time>
      </trkpt>
      <trkpt lat="43.78155" lon="6.32894">
        <ele>1095.934</ele>
        <time>2019-05-15T23:37:11Z</time>
      </trkpt>
      <trkpt lat="43.78174" lon="6.32991">
        <ele>1080.455</ele>
        <time>2019-05-15T23:37:31Z</time>
      </trkpt>
      <trkpt lat="43.78171" lon="6.3302">
        <ele>1075.41</ele>
        <time>2019-05-15T23:37:51Z</time>
      </trkpt>
      <trkpt lat="43.78179" lon="6.33045">
        <ele>1075.508</ele>
        <time>2019-05-15T23:38:11Z</time>
      </trkpt>
      <trkpt lat="43.78181" lon="6.33074">
        <ele>1072.737</ele>
        <time>2019-05-15T23:38:31Z</time>
      </trkpt>
      <trkpt lat="43.78187" lon="6.33135">
        <ele>1068.279</ele>
        <time>2019-05-15T23:38:51Z</time>
      </trkpt>
      <trkpt lat="43.78183" lon="6.33175">
        <ele>1063.311</ele>
        <time>2019-05-15T23:39:11Z</time>
      </trkpt>
      <trkpt lat="43.7819" lon="6.33216">
        <ele>1061.014</ele>
        <time>2019-05-15T23:39:31Z</time>
      </trkpt>
      <trkpt lat="43.78192" lon="6.33273">
        <ele>1053.79</ele>
        <time>2019-05-15T23:39:51Z</time>
      </trkpt>
      <trkpt lat="43.782" lon="6.33315">
        <ele>1049.372</ele>
        <time>2019-05-15T23:40:11Z</time>
      </trkpt>
      <trkpt lat="43.782" lon="6.33376">
        <ele>1039.264</ele>
        <time>2019-05-15T23:40:31Z</time>
      </trkpt>
      <trkpt lat="43.78206" lon="6.33427">
        <ele>1032.73</ele>
        <time>2019-05-15T23:40:51Z</time>
      </trkpt>
      <trkpt lat="43.78188" lon="6.3345">
        <ele>1024.324</ele>
        <time>2019-05-15T23:41:11Z</time>
      </trkpt>
      <trkpt lat="43.78183" lon="6.33497">
        <ele>1018.004</ele>
        <time>2019-05-15T23:41:31Z</time>
      </trkpt>
      <trkpt lat="43.78142" lon="6.33573">
        <ele>1001.014</ele>
        <time>2019-05-15T23:41:51Z</time>
      </trkpt>
      <trkpt lat="43.78108" lon="6.33557">
        <ele>991.608</ele>
        <time>2019-05-15T23:42:11Z</time>
      </trkpt>
      <trkpt lat="43.78107" lon="6.33583">
        <ele>988.286</ele>
        <time>2019-05-15T23:42:31Z</time>
      </trkpt>
      <trkpt lat="43.78099" lon="6.3359">
        <ele>984.238</ele>
        <time>2019-05-15T23:42:51Z</time>
      </trkpt>
      <trkpt lat="43.78099" lon="6.33616">
        <ele>981.55</ele>
        <time>2019-05-15T23:43:11Z</time>
      </trkpt>
      <trkpt lat="43.78078" lon="6.33633">
        <ele>971.283</ele>
        <time>2019-05-15T23:43:31Z</time>
      </trkpt>
      <trkpt lat="43.78071" lon="6.33668">
        <ele>966.669</ele>
        <time>2019-05-15T23:43:51Z</time>
      </trkpt>
      <trkpt lat="43.78041" lon="6.33682">
        <ele>960.831</ele>
        <time>2019-05-15T23:44:11Z</time>
      </trkpt>
      <trkpt lat="43.78033" lon="6.33753">
        <ele>951.513</ele>
        <time>2019-05-15T23:44:31Z</time>
      </trkpt>
      <trkpt lat="43.78017" lon="6.33777">
        <ele>948.799</ele>
        <time>2019-05-15T23:44:51Z</time>
      </trkpt>
      <trkpt lat="43.77994" lon="6.33905">
        <ele>938.475</ele>
        <time>2019-05-15T23:45:11Z</time>
      </trkpt>
      <trkpt lat="43.77961" lon="6.33966">
        <ele>936.8</ele>
      </trkpt>
      <trkpt lat="43.77928" lon="6.3394">
        <ele>935.72</ele>
        <time>2019-05-15T23:45:51Z</time>
      </trkpt>
      <trkpt lat="43.77897" lon="6.33878">
        <ele>939.208</ele>
        <time>2019-05-15T23:46:11Z</time>
      </trkpt>
      <trkpt lat="43.77828" lon="6.33875">
        <ele>938.261</ele>
        <time>2019-05-15T23:46:31Z</time>
      </trkpt>
      <trkpt lat="43.77769" lon="6.33854">
        <ele>940.193</ele>
        <time>2019-05-15T23:46:51Z</time>
      </trkpt>
      <trkpt lat="43.77739" lon="6.33824">
        <ele>939.945</ele>
        <time>2019-05-15T23:47:11Z</time>
      </trkpt>
      <trkpt lat="43.77705" lon="6.33804">
        <ele>938.298</ele>
        <time>2019-05-15T23:47:31Z</time>
      </trkpt>
      <trkpt lat="43.7758" lon="6.33752">
        <ele>929.454</ele>
        <time>2019-05-15T23:47:51Z</time>
      </trkpt>
      <trkpt lat="43.77539" lon="6.33725">
        <ele>922.896</ele>
        <time>2019-05-15T23:48:11Z</time>
      </trkpt>
      <trkpt lat="43.77527" lon="6.33707">
        <ele>922.598</ele>
        <time>2019-05-15T23:48:31Z</time>
      </trkpt>
      <trkpt lat="43.77484" lon="6.33725">
        <ele>916.064</ele>
        <time>2019-05-15T23:48:51Z</time>
      </trkpt>
      <trkpt lat="43.77357" lon="6.33664">
        <ele>907.685</ele>
        <time>2019-05-15T23:49:11Z</time>
      </trkpt>
      <trkpt lat="43.77318" lon="6.33594">
        <ele>904.289</ele>
        <time>2019-05-15T23:49:31Z</time>
      </trkpt>
      <trkpt lat="43.77297" lon="6.33583">
        <ele>901.817</ele>
        <time>2019-05-15T23:49:51Z</time>
      </trkpt>
      <trkpt lat="43.77259" lon="6.33611">
        <ele>895.908</ele>
        <time>2019-05-15T23:50:11Z</time>
      </trkpt>
      <trkpt lat="43.77238" lon="6.33597">
        <ele>893.362</ele>
        <time>2019-05-15T23:50:31Z</time>
      </trkpt>
      <trkpt lat="43.77203" lon="6.33478">
        <ele>895.094</ele>
        <time>2019-05-15T23:50:51Z</time>
      </trkpt>
      <trkpt lat="43.77147" lon="6.33444">
        <ele>886.196</ele>
        <time>2019-05-15T23:51:11Z</time>
      </trkpt>
      <trkpt lat="43.77136" lon="6.33376">
        <ele>890.099</ele>
        <time>2019-05-15T23:51:31Z</time>
      </trkpt>
      <trkpt lat="43.77115" lon="6.33318">
        <ele>889.925</ele>
        <time>2019-05-15T23:51:51Z</time>
      </trkpt>
      <trkpt lat="43.77087" lon="6.33278">
        <ele>883.467</ele>
        <time>2019-05-15T23:52:11Z</time>
      </trkpt>
      <trkpt lat="43.77042" lon="6.33198">
        <ele>881.679</ele>
        <time>2019-05-15T23:52:31Z</time>
      </trkpt>
      <trkpt lat="43.76961" lon="6.33086">
        <ele>870.665</ele>
        <time>2019-05-15T23:52:51Z</time>
      </trkpt>
      <trkpt lat="43.76932" lon="6.33064">
        <ele>869.074</ele>
        <time>2019-05-15T23:53:11Z</time>
      </trkpt>
      <trkpt lat="43.76886" lon="6.33052">
        <ele>860.356</ele>
        <time>2019-05-15T23:53:31Z</time>
      </trkpt>
      <trkpt lat="43.76862" lon="6.33019">
        <ele>860.421</ele>
        <time>2019-05-15T23:53:51Z</time>
      </trkpt>
      <trkpt lat="43.7682" lon="6.32986">
        <ele>855.808</ele>
        <time>2019-05-15T23:54:11Z</time>
      </trkpt>
      <trkpt lat="43.76801" lon="6.32893">
        <ele>853.241</ele>
        <time>2019-05-15T23:54:31Z</time>
      </trkpt>
      <trkpt lat="43.76816" lon="6.3283">
        <ele>850.423</ele>
        <time>2019-05-15T23:54:51Z</time>
      </trkpt>
      <trkpt lat="43.76844" lon="6.32752">
        <ele>848.885</ele>
        <time>2019-05-15T23:55:11Z</time>
      </trkpt>
      <trkpt lat="43.76828" lon="6.32743">
        <ele>840.578</ele>
        <time>2019-05-15T23:55:31Z</time>
      </trkpt>
      <trkpt lat="43.76806" lon="6.32804">
        <ele>841.654</ele>
        <time>2019-05-15T23:55:51Z</time>
      </trkpt>
      <trkpt lat="43.76776" lon="6.32808">
        <ele>834.456</ele>
        <time>2019-05-15T23:56:11Z</time>
      </trkpt>
      <trkpt lat="43.76771" lon="6.32782">
        <ele>838.698</ele>
        <time>2019-05-15T23:56:31Z</time>
      </trkpt>
      <trkpt lat="43.76798" lon="6.32732">
        <ele>830.484</ele>
        <time>2019-05-15T23:56:51Z</time>
      </trkpt>
      <trkpt lat="43.76768" lon="6.32658">
        <ele>833.558</ele>
        <time>2019-05-15T23:57:11Z</time>
      </trkpt>
      <trkpt lat="43.76767" lon="6.32553">
        <ele>823.052</ele>
        <time>2019-05-15T23:57:31Z</time>
      </trkpt>
      <trkpt lat="43.76735" lon="6.32494">
        <ele>829.617</ele>
        <time>2019-05-15T23:57:51Z</time>
      </trkpt>
      <trkpt lat="43.76717" lon="6.32426">
        <ele>823.808</ele>
        <time>2019-05-15T23:58:11Z</time>
      </trkpt>
      <trkpt lat="43.76655" lon="6.32321">
        <ele>824.079</ele>
        <time>2019-05-15T23:58:31Z</time>
      </trkpt>
      <trkpt lat="43.76605" lon="6.3217">
        <ele>813.951</ele>
        <time>2019-05-15T23:58:51Z</time>
      </trkpt>
      <trkpt lat="43.76503" lon="6.32011">
        <ele>818.313</ele>
        <time>2019-05-15T23:59:11Z</time>
      </trkpt>
      <trkpt lat="43.76474" lon="6.31926">
        <ele>811.256</ele>
        <time>2019-05-15T23:59:31Z</time>
      </trkpt>
      <trkpt lat="43.7643" lon="6.31881">
        <ele>814.682</ele>
        <time>2019-05-15T23:59:51Z</time>
      </trkpt>
      <trkpt lat="43.76402" lon="6.31817">
        <ele>809.124</ele>
        <time>2019-05-16T00:00:11Z</time>
      </trkpt>
      <trkpt lat="43.76362" lon="6.31768">
        <ele>804.836</ele>
        <time>2019-05-16T00:00:31Z</time>
      </trkpt>
      <trkpt lat="43.76315" lon="6.31753">
        <ele>810.022</ele>
        <time>2019-05-16T00:00:51Z</time>
      </trkpt>
      <trkpt lat="43.76292" lon="6.3173">
        <ele>811.567</ele>
        <time>2019-05-16T00:01:11Z</time>
      </trkpt>
      <trkpt lat="43.76271" lon="6.31659">
        <ele>800.381</ele>
        <time>2019-05-16T00:01:31Z</time>
      </trkpt>
      <trkpt lat="43.7624" lon="6.3165">
        <ele>803.019</ele>
        <time>2019-05-16T00:01:51Z</time>
      </trkpt>
      <trkpt lat="43.76202" lon="6.31685">
        <ele>816.908</ele>
        <time>2019-05-16T00:02:11Z</time>
      </trkpt>
      <trkpt lat="43.76147" lon="6.31671">
        <ele>809.12</ele>
        <time>2019-05-16T00:02:31Z</time>
      </trkpt>
      <trkpt lat="43.76077" lon="6.31605">
        <ele>803.122</ele>
        <time>2019-05-16T00:02:51Z</time>
      </trkpt>
      <trkpt lat="43.7603" lon="6.31585">
        <ele>802.074</ele>
        <time>2019-05-16T00:03:11Z</time>
      </trkpt>
      <trkpt lat="43.75962" lon="6.31697">
        <ele>796.967</ele>
        <time>2019-05-16T00:03:31Z</time>
      </trkpt>
      <trkpt lat="43.75961" lon="6.3174">
        <ele>801.373</ele>
        <time>2019-05-16T00:03:51Z</time>
      </trkpt>
      <trkpt lat="43.75989" lon="6.31834">
        <ele>811.175</ele>
        <time>2019-05-16T00:04:11Z</time>
      </trkpt>
      <trkpt lat="43.75992" lon="6.31906">
        <ele>810.927</ele>
        <time>2019-05-16T00:04:31Z</time>
      </trkpt>
      <trkpt lat="43.75938" lon="6.3198">
        <ele>807.793</ele>
        <time>2019-05-16T00:04:51Z</time>
      </trkpt>
      <trkpt lat="43.75858" lon="6.3194">
        <ele>795.887</ele>
        <time>2019-05-16T00:05:11Z</time>
      </trkpt>
      <trkpt lat="43.75803" lon="6.31992">
        <ele>799.042</ele>
        <time>2019-05-16T00:05:31Z</time>
      </trkpt>
      <trkpt lat="43.7577" lon="6.32051">
        <ele>801.926</ele>
        <time>2019-05-16T00:05:51Z</time>
      </trkpt>
      <trkpt lat="43.7573" lon="6.32075">
        <ele>805.908</ele>
        <time>2019-05-16T00:06:11Z</time>
      </trkpt>
      <trkpt lat="43.75648" lon="6.32056">
        <ele>814.532</ele>
        <time>2019-05-16T00:06:31Z</time>
      </trkpt>
      <trkpt lat="43.75606" lon="6.32025">
        <ele>811.644</ele>
        <time>2019-05-16T00:06:51Z</time>
      </trkpt>
      <trkpt lat="43.75585" lon="6.32038">
        <ele>824.456</ele>
        <time>2019-05-16T00:07:11Z</time>
      </trkpt>
      <trkpt lat="43.7561" lon="6.32127">
        <ele>834.259</ele>
        <time>2019-05-16T00:07:31Z</time>
      </trkpt>
      <trkpt lat="43.75601" lon="6.32209">
        <ele>829.985</ele>
        <time>2019-05-16T00:07:51Z</time>
      </trkpt>
      <trkpt lat="43.7561" lon="6.32287">
        <ele>838.787</ele>
        <time>2019-05-16T00:08:11Z</time>
      </trkpt>
      <trkpt lat="43.75602" lon="6.32349">
        <ele>834.479</ele>
        <time>2019-05-16T00:08:31Z</time>
      </trkpt>
      <trkpt lat="43.75606" lon="6.32428">
        <ele>842.355</ele>
        <time>2019-05-16T00:08:51Z</time>
      </trkpt>
      <trkpt lat="43.75505" lon="6.32543">
        <ele>841.439</ele>
        <time>2019-05-16T00:09:11Z</time>
      </trkpt>
      <trkpt lat="43.75438" lon="6.32566">
        <ele>842.701</ele>
        <time>2019-05-16T00:09:31Z</time>
      </trkpt>
      <trkpt lat="43.75416" lon="6.32593">
        <ele>850.221</ele>
        <time>2019-05-16T00:09:51Z</time>
      </trkpt>
      <trkpt lat="43.7542" lon="6.32641">
        <ele>860.408</ele>
        <time>2019-05-16T00:10:11Z</time>
      </trkpt>
      <trkpt lat="43.75409" lon="6.32675">
        <ele>861.547</ele>
        <time>2019-05-16T00:10:31Z</time>
      </trkpt>
      <trkpt lat="43.75351" lon="6.32681">
        <ele>852.919</ele>
        <time>2019-05-16T00:10:51Z</time>
      </trkpt>
      <trkpt lat="43.75334" lon="6.32727">
        <ele>863.291</ele>
        <time>2019-05-16T00:11:11Z</time>
      </trkpt>
      <trkpt lat="43.75329" lon="6.32805">
        <ele>866.684</ele>
        <time>2019-05-16T00:11:31Z</time>
      </trkpt>
      <trkpt lat="43.7532" lon="6.3284">
        <ele>866.12</ele>
        <time>2019-05-16T00:11:51Z</time>
      </trkpt>
      <trkpt lat="43.75186" lon="6.32833">
        <ele>849.832</ele>
        <time>2019-05-16T00:12:11Z</time>
      </trkpt>
      <trkpt lat="43.75157" lon="6.32882">
        <ele>850.374</ele>
        <time>2019-05-16T00:12:31Z</time>
      </trkpt>
      <trkpt lat="43.75139" lon="6.32975">
        <ele>849.82</ele>
        <time>2019-05-16T00:12:51Z</time>
      </trkpt>
      <trkpt lat="43.75161" lon="6.33035">
        <ele>853.558</ele>
        <time>2019-05-16T00:13:11Z</time>
      </trkpt>
      <trkpt lat="43.7514" lon="6.33063">
        <ele>841.852</ele>
        <time>2019-05-16T00:13:31Z</time>
      </trkpt>
      <trkpt lat="43.7507" lon="6.33036">
        <ele>838.517</ele>
        <time>2019-05-16T00:13:51Z</time>
      </trkpt>
      <trkpt lat="43.75026" lon="6.3296">
        <ele>830.408</ele>
        <time>2019-05-16T00:14:11Z</time>
      </trkpt>
      <trkpt lat="43.74929" lon="6.32902">
        <ele>827.339</ele>
        <time>2019-05-16T00:14:31Z</time>
      </trkpt>
      <trkpt lat="43.74844" lon="6.32833">
        <ele>818.831</ele>
        <time>2019-05-16T00:14:51Z</time>
      </trkpt>
      <trkpt lat="43.74817" lon="6.32842">
        <ele>816.373</ele>
        <time>2019-05-16T00:15:11Z</time>
      </trkpt>
      <trkpt lat="43.74756" lon="6.32924">
        <ele>822.436</ele>
        <time>2019-05-16T00:15:31Z</time>
      </trkpt>
      <trkpt lat="43.74747" lon="6.3304">
        <ele>838.432</ele>
        <time>2019-05-16T00:15:51Z</time>
      </trkpt>
      <trkpt lat="43.74706" lon="6.33087">
        <ele>824.164</ele>
        <time>2019-05-16T00:16:11Z</time>
      </trkpt>
      <trkpt lat="43.74696" lon="6.33147">
        <ele>831.696</ele>
        <time>2019-05-16T00:16:31Z</time>
      </trkpt>
      <trkpt lat="43.74698" lon="6.33244">
        <ele>838.032</ele>
        <time>2019-05-16T00:16:51Z</time>
      </trkpt>
      <trkpt lat="43.74671" lon="6.33302">
        <ele>833.461</ele>
        <time>2019-05-16T00:17:11Z</time>
      </trkpt>
      <trkpt lat="43.74684" lon="6.33396">
        <ele>849.121</ele>
        <time>2019-05-16T00:17:31Z</time>
      </trkpt>
      <trkpt lat="43.74654" lon="6.33461">
        <ele>838.013</ele>
        <time>2019-05-16T00:17:51Z</time>
      </trkpt>
      <trkpt lat="43.7465" lon="6.33494">
        <ele>843.508</ele>
        <time>2019-05-16T00:18:11Z</time>
      </trkpt>
      <trkpt lat="43.7467" lon="6.33537">
        <ele>857.98</ele>
        <time>2019-05-16T00:18:31Z</time>
      </trkpt>
      <trkpt lat="43.74658" lon="6.33586">
        <ele>847.742</ele>
        <time>2019-05-16T00:18:51Z</time>
      </trkpt>
      <trkpt lat="43.74577" lon="6.33652">
        <ele>836.774</ele>
        <time>2019-05-16T00:19:11Z</time>
      </trkpt>
      <trkpt lat="43.74572" lon="6.33712">
        <ele>854.817</ele>
        <time>2019-05-16T00:19:31Z</time>
      </trkpt>
      <trkpt lat="43.74548" lon="6.33737">
        <ele>843.493</ele>
        <time>2019-05-16T00:19:51Z</time>
      </trkpt>
      <trkpt lat="43.74531" lon="6.33806">
        <ele>851.785</ele>
        <time>2019-05-16T00:20:11Z</time>
      </trkpt>
      <trkpt lat="43.74564" lon="6.33888">
        <ele>861.637</ele>
        <time>2019-05-16T00:20:31Z</time>
      </trkpt>
      <trkpt lat="43.74554" lon="6.33949">
        <ele>858.013</ele>
        <time>2019-05-16T00:20:51Z</time>
      </trkpt>
      <trkpt lat="43.74582" lon="6.34036">
        <ele>871.981</ele>
        <time>2019-05-16T00:21:11Z</time>
      </trkpt>
      <trkpt lat="43.74559" lon="6.34102">
        <ele>864.561</ele>
        <time>2019-05-16T00:21:31Z</time>
      </trkpt>
      <trkpt lat="43.74624" lon="6.34207">
        <ele>887.017</ele>
        <time>2019-05-16T00:21:51Z</time>
      </trkpt>
      <trkpt lat="43.7465" lon="6.34331">
        <ele>892.508</ele>
        <time>2019-05-16T00:22:11Z</time>
      </trkpt>
      <trkpt lat="43.74645" lon="6.3443">
        <ele>893.442</ele>
        <time>2019-05-16T00:22:31Z</time>
      </trkpt>
      <trkpt lat="43.74637" lon="6.34478">
        <ele>889.1</ele>
      </trkpt>
    </trkseg>
  </trk>
</gpx>